Mediterranean Sea — WDG229 — position and weather

sailwx.info

Track history (hours):
 
Tides and Currents Weather Stations Pressure Air Temp Water Temp Dewpoint Dewpoint Depression Visibility Wind Speed Wind Dir Waves Ship Positions

Mediterranean Sea

Last reported at 2014-Sep-18 11:33 UTC. Time now 2014-Sep-18 11:47 UTC.
Position N 40°39' W 074°10'.

Length 33 m; draft 6 m.

Type: Wing in ground effect craft. MMSI: 367010390.

Date/timePositionNaut miles runAvg speedWind from/ knotsBaromVisibWave heightAir tempDewpointWater temp
2014-Sep-18 11:33N 40°39' W 074°10'0 0.0
2014-Sep-18 10:34N 40°39' W 074°10'0 0.0
2014-Sep-18 09:30N 40°39' W 074°10'0 0.0
2014-Sep-18 08:30N 40°39' W 074°10'0 0.0
2014-Sep-18 05:29N 40°39' W 074°10'0 0.0
2014-Sep-18 04:31N 40°39' W 074°10'0 0.0
2014-Sep-18 03:23N 40°39' W 074°10'0 0.0
2014-Sep-18 01:12N 40°39' W 074°10'0 0.0
2014-Sep-18 00:32N 40°39' W 074°10'0 0.0
2014-Sep-17 23:33N 40°39' W 074°10'0 0.0
2014-Sep-17 08:23N 40°39' W 074°10'0 0.0
2014-Sep-16 22:12N 40°39' W 074°10'0 0.0
2014-Sep-16 11:25N 40°39' W 074°10'0 0.0
2014-Sep-16 10:31N 40°39' W 074°10'0 0.0
2014-Sep-16 09:31N 40°39' W 074°10'0 0.0
2014-Sep-16 08:30N 40°39' W 074°10'0 0.0
2014-Sep-16 07:34N 40°39' W 074°10'0 0.0
2014-Sep-16 06:17N 40°39' W 074°10'0 0.0
2014-Sep-16 05:30N 40°39' W 074°10'0 0.0
2014-Sep-16 04:33N 40°39' W 074°10'0 0.0
2014-Sep-16 03:33N 40°39' W 074°10'0 0.0
2014-Sep-16 02:33N 40°39' W 074°10'0 0.0
2014-Sep-16 01:34N 40°39' W 074°10'0 0.0
2014-Sep-16 00:33N 40°39' W 074°10'0 0.0
2014-Sep-15 23:33N 40°39' W 074°10'0 0.0
2014-Sep-15 22:31N 40°39' W 074°10'0 0.0
2014-Sep-15 21:29N 40°39' W 074°10'0 0.0
2014-Sep-15 17:26N 40°39' W 074°10'0 0.0
2014-Sep-15 16:33N 40°39' W 074°10'0 0.1
2014-Sep-15 15:34N 40°39' W 074°10'0 0.1
2014-Sep-15 14:22N 40°39' W 074°10'0 0.0
2014-Sep-15 13:31N 40°39' W 074°10'0 0.0
2014-Sep-15 10:17N 40°39' W 074°10'0 0.0
2014-Sep-15 07:24N 40°39' W 074°10'0 0.0
2014-Sep-15 05:16N 40°39' W 074°10'0 0.0
2014-Sep-15 04:30N 40°39' W 074°10'0 0.1
2014-Sep-15 03:13N 40°39' W 074°10'3 5.1
2014-Sep-15 02:33N 40°36' W 074°12'0 0.0
2014-Sep-15 01:32N 40°36' W 074°12'3 2.6
2014-Sep-15 00:14N 40°39' W 074°10'0 0.0
2014-Sep-14 20:22N 40°38' W 074°10'0 0.0
2014-Sep-14 15:08N 40°39' W 074°10'0 0.0
2014-Sep-14 13:31N 40°39' W 074°10'0 0.0
2014-Sep-14 12:26N 40°39' W 074°10'0 0.0
2014-Sep-14 11:30N 40°39' W 074°10'0 0.0
2014-Sep-14 10:10N 40°39' W 074°10'0 0.0
2014-Sep-14 09:33N 40°39' W 074°10'0 0.0
2014-Sep-14 08:34N 40°39' W 074°10'0 0.0
2014-Sep-14 07:33N 40°39' W 074°10'0 0.0
2014-Sep-14 06:33N 40°39' W 074°10'0 0.0
2014-Sep-14 05:33N 40°39' W 074°10'0 0.0
2014-Sep-14 04:34N 40°39' W 074°10'0 0.0
2014-Sep-14 03:33N 40°39' W 074°10'0 0.0
2014-Sep-14 02:34N 40°39' W 074°10'0 0.0
2014-Sep-13 19:29N 40°39' W 074°10'0 0.0
2014-Sep-13 18:32N 40°39' W 074°10'0 0.0
2014-Sep-13 17:32N 40°39' W 074°10'0 0.0
2014-Sep-13 16:33N 40°39' W 074°10'0 0.0
2014-Sep-13 15:32N 40°39' W 074°10'0 0.0
2014-Sep-13 14:31N 40°39' W 074°10'1 1.1
2014-Sep-13 13:33N 40°39' W 074°11'7 6.7
2014-Sep-13 12:31N 40°32' W 074°15'3 3.4
2014-Sep-13 11:33N 40°35' W 074°13'0 0.1
2014-Sep-13 10:32N 40°35' W 074°13'0 0.0
2014-Sep-13 08:22N 40°35' W 074°13'2 2.2
2014-Sep-13 07:30N 40°37' W 074°12'2 2.3
2014-Sep-13 06:32N 40°39' W 074°10'0 0.0
2014-Sep-13 05:30N 40°39' W 074°10'0 0.0
2014-Sep-13 04:33N 40°39' W 074°10'0 0.0
2014-Sep-13 03:31N 40°39' W 074°10'0 0.0
2014-Sep-13 02:34N 40°39' W 074°10'0 0.0
2014-Sep-13 01:29N 40°39' W 074°10'0 0.0
2014-Sep-13 00:33N 40°39' W 074°10'0 0.0
2014-Sep-12 23:32N 40°39' W 074°10'0 0.0
2014-Sep-12 22:31N 40°39' W 074°10'0 0.0
2014-Sep-12 21:23N 40°39' W 074°10'0 0.0
2014-Sep-12 20:32N 40°39' W 074°10'0 0.0
2014-Sep-12 19:33N 40°39' W 074°10'0 0.0
2014-Sep-12 18:29N 40°39' W 074°10'0 0.0
2014-Sep-12 17:33N 40°39' W 074°10'0 0.0
2014-Sep-12 16:31N 40°39' W 074°10'2 2.2
2014-Sep-12 15:33N 40°39' W 074°07'2 2.3
2014-Sep-12 14:34N 40°39' W 074°10'0 0.2
2014-Sep-12 13:32N 40°39' W 074°10'0 0.0
2014-Sep-12 12:33N 40°39' W 074°10'0 0.0
2014-Sep-12 11:32N 40°39' W 074°10'0 0.0
2014-Sep-12 10:26N 40°39' W 074°10'0 0.0
2014-Sep-12 09:32N 40°39' W 074°10'0 0.0
2014-Sep-12 08:31N 40°39' W 074°10'0 0.0
2014-Sep-12 07:34N 40°39' W 074°10'0 0.0
2014-Sep-12 06:24N 40°39' W 074°10'0 0.0
2014-Sep-12 05:33N 40°39' W 074°10'0 0.0
2014-Sep-12 04:28N 40°39' W 074°10'0 0.0
2014-Sep-12 03:31N 40°39' W 074°10'0 0.0
2014-Sep-12 02:30N 40°39' W 074°10'0 0.0
2014-Sep-12 01:34N 40°39' W 074°10'0 0.0
2014-Sep-12 00:30N 40°39' W 074°10'0 0.0
2014-Sep-11 23:31N 40°39' W 074°10'0 0.0
2014-Sep-11 22:30N 40°39' W 074°10'0 0.0
2014-Sep-11 21:26N 40°39' W 074°10'5 1.9
2014-Sep-11 18:33N 40°38' W 074°03'3 2.9
2014-Sep-11 17:34N 40°39' W 074°06'3 2.7
2014-Sep-11 16:33N 40°39' W 074°10'0 0.0
2014-Sep-11 15:33N 40°39' W 074°10'0 0.0
2014-Sep-11 14:33N 40°39' W 074°10'0 0.0
2014-Sep-11 13:32N 40°39' W 074°10'0 0.0
2014-Sep-11 12:33N 40°39' W 074°10'0 0.0
2014-Sep-11 11:33N 40°39' W 074°10'0 0.0
2014-Sep-11 10:33N 40°39' W 074°10'0 0.0
2014-Sep-11 09:33N 40°39' W 074°10'0 0.0
2014-Sep-11 08:33N 40°39' W 074°10'0 0.0
2014-Sep-11 07:33N 40°39' W 074°10'0 0.0
2014-Sep-11 06:33N 40°39' W 074°10'0 0.0
2014-Sep-11 05:33N 40°39' W 074°10'0 0.0
2014-Sep-11 04:32N 40°39' W 074°10'0 0.0
2014-Sep-11 03:33N 40°39' W 074°10'0 0.0
2014-Sep-11 02:33N 40°39' W 074°10'0 0.0
2014-Sep-11 01:33N 40°39' W 074°10'0 0.0
2014-Sep-11 00:33N 40°39' W 074°10'0 0.0
2014-Sep-10 23:33N 40°39' W 074°10'0 0.0
2014-Sep-10 22:33N 40°39' W 074°10'0 0.0
2014-Sep-10 21:33N 40°39' W 074°10'0 0.0
2014-Sep-10 20:33N 40°39' W 074°10'0 0.0
2014-Sep-10 19:32N 40°39' W 074°10'0 0.0
2014-Sep-10 18:33N 40°39' W 074°10'0 0.0
2014-Sep-10 17:33N 40°39' W 074°10'0 0.0
2014-Sep-10 16:33N 40°39' W 074°10'0 0.0
2014-Sep-10 14:24N 40°39' W 074°10'0 0.0
2014-Sep-10 13:34N 40°39' W 074°10'0 0.0
2014-Sep-10 12:34N 40°39' W 074°10'0 0.0
2014-Sep-10 11:34N 40°39' W 074°10'0 0.0
2014-Sep-10 10:33N 40°39' W 074°10'0 0.0
2014-Sep-10 09:33N 40°39' W 074°10'0 0.0
2014-Sep-10 08:33N 40°39' W 074°10'0 0.0
2014-Sep-10 07:34N 40°39' W 074°10'0 0.0
2014-Sep-10 06:33N 40°39' W 074°10'0 0.0
2014-Sep-10 05:33N 40°39' W 074°10'0 0.0
2014-Sep-10 04:33N 40°39' W 074°10'0 0.0
2014-Sep-10 03:33N 40°39' W 074°10'0 0.0
2014-Sep-10 02:34N 40°39' W 074°10'0 0.0
2014-Sep-10 01:33N 40°39' W 074°10'0 0.0
2014-Sep-10 00:33N 40°39' W 074°10'0 0.0
2014-Sep-09 23:34N 40°39' W 074°10'0 0.0
2014-Sep-09 22:33N 40°39' W 074°10'0 0.0
2014-Sep-09 21:33N 40°39' W 074°10'0 0.0
2014-Sep-09 20:34N 40°39' W 074°10'0 0.0
2014-Sep-09 19:34N 40°39' W 074°10'0 0.0
2014-Sep-09 18:33N 40°39' W 074°10'0 0.0
2014-Sep-09 17:33N 40°39' W 074°10'0 0.0
2014-Sep-09 16:33N 40°39' W 074°10'0 0.0
2014-Sep-09 15:33N 40°39' W 074°10'0 0.0
2014-Sep-09 14:32N 40°39' W 074°10'0 0.0
2014-Sep-09 13:33N 40°39' W 074°10'0 0.0
2014-Sep-09 12:33N 40°39' W 074°10'0 0.0
2014-Sep-09 11:34N 40°39' W 074°10'0 0.0
2014-Sep-09 10:33N 40°39' W 074°10'0 0.0
2014-Sep-09 09:33N 40°39' W 074°10'0 0.0
2014-Sep-09 08:32N 40°39' W 074°10'0 0.0
2014-Sep-09 07:34N 40°39' W 074°10'0 0.0
2014-Sep-09 06:33N 40°39' W 074°10'0 0.0
2014-Sep-09 05:33N 40°39' W 074°10'0 0.0
2014-Sep-09 04:33N 40°39' W 074°10'0 0.0
2014-Sep-09 03:33N 40°39' W 074°10'0 0.0
2014-Sep-09 02:31N 40°39' W 074°10'0 0.0
2014-Sep-09 01:32N 40°39' W 074°10'0 0.0
2014-Sep-09 00:33N 40°39' W 074°10'0 0.0
2014-Sep-08 23:33N 40°39' W 074°10'0 0.0
2014-Sep-08 22:33N 40°39' W 074°10'0 0.0
2014-Sep-08 21:32N 40°39' W 074°10'0 0.0
2014-Sep-08 20:33N 40°39' W 074°10'3 3.1
2014-Sep-08 19:34N 40°39' W 074°06'3 3.0
2014-Sep-08 18:32N 40°39' W 074°10'1 1.3
2014-Sep-08 17:33N 40°40' W 074°09'1 1.3
2014-Sep-08 16:33N 40°39' W 074°10'0 0.0
2014-Sep-08 15:33N 40°39' W 074°10'0 0.0
2014-Sep-08 14:33N 40°39' W 074°10'0 0.0
2014-Sep-08 13:34N 40°39' W 074°10'0 0.0
2014-Sep-08 12:33N 40°39' W 074°10'  
Track history (hours):
 
Tides and Currents Weather Stations Pressure Air Temp Water Temp Dewpoint Dewpoint Depression Visibility Wind Speed Wind Dir Waves Ship Positions

Mediterranean Sea

Last reported at 2014-Sep-18 11:33 UTC. Time now 2014-Sep-18 11:47 UTC.
Position N 40°39' W 074°10'.

Length 33 m; draft 6 m.

Type: Wing in ground effect craft. MMSI: 367010390.

Date/timePositionNaut miles runAvg speedWind from/ knotsBaromVisibWave heightAir tempDewpointWater temp
2014-Sep-18 11:33N 40°39' W 074°10'0 0.0
2014-Sep-18 10:34N 40°39' W 074°10'0 0.0
2014-Sep-18 09:30N 40°39' W 074°10'0 0.0
2014-Sep-18 08:30N 40°39' W 074°10'0 0.0
2014-Sep-18 05:29N 40°39' W 074°10'0 0.0
2014-Sep-18 04:31N 40°39' W 074°10'0 0.0
2014-Sep-18 03:23N 40°39' W 074°10'0 0.0
2014-Sep-18 01:12N 40°39' W 074°10'0 0.0
2014-Sep-18 00:32N 40°39' W 074°10'0 0.0
2014-Sep-17 23:33N 40°39' W 074°10'0 0.0
2014-Sep-17 08:23N 40°39' W 074°10'0 0.0
2014-Sep-16 22:12N 40°39' W 074°10'0 0.0
2014-Sep-16 11:25N 40°39' W 074°10'0 0.0
2014-Sep-16 10:31N 40°39' W 074°10'0 0.0
2014-Sep-16 09:31N 40°39' W 074°10'0 0.0
2014-Sep-16 08:30N 40°39' W 074°10'0 0.0
2014-Sep-16 07:34N 40°39' W 074°10'0 0.0
2014-Sep-16 06:17N 40°39' W 074°10'0 0.0
2014-Sep-16 05:30N 40°39' W 074°10'0 0.0
2014-Sep-16 04:33N 40°39' W 074°10'0 0.0
2014-Sep-16 03:33N 40°39' W 074°10'0 0.0
2014-Sep-16 02:33N 40°39' W 074°10'0 0.0
2014-Sep-16 01:34N 40°39' W 074°10'0 0.0
2014-Sep-16 00:33N 40°39' W 074°10'0 0.0
2014-Sep-15 23:33N 40°39' W 074°10'0 0.0
2014-Sep-15 22:31N 40°39' W 074°10'0 0.0
2014-Sep-15 21:29N 40°39' W 074°10'0 0.0
2014-Sep-15 17:26N 40°39' W 074°10'0 0.0
2014-Sep-15 16:33N 40°39' W 074°10'0 0.1
2014-Sep-15 15:34N 40°39' W 074°10'0 0.1
2014-Sep-15 14:22N 40°39' W 074°10'0 0.0
2014-Sep-15 13:31N 40°39' W 074°10'0 0.0
2014-Sep-15 10:17N 40°39' W 074°10'0 0.0
2014-Sep-15 07:24N 40°39' W 074°10'0 0.0
2014-Sep-15 05:16N 40°39' W 074°10'0 0.0
2014-Sep-15 04:30N 40°39' W 074°10'0 0.1
2014-Sep-15 03:13N 40°39' W 074°10'3 5.1
2014-Sep-15 02:33N 40°36' W 074°12'0 0.0
2014-Sep-15 01:32N 40°36' W 074°12'3 2.6
2014-Sep-15 00:14N 40°39' W 074°10'0 0.0
2014-Sep-14 20:22N 40°38' W 074°10'0 0.0
2014-Sep-14 15:08N 40°39' W 074°10'0 0.0
2014-Sep-14 13:31N 40°39' W 074°10'0 0.0
2014-Sep-14 12:26N 40°39' W 074°10'0 0.0
2014-Sep-14 11:30N 40°39' W 074°10'0 0.0
2014-Sep-14 10:10N 40°39' W 074°10'0 0.0
2014-Sep-14 09:33N 40°39' W 074°10'0 0.0
2014-Sep-14 08:34N 40°39' W 074°10'0 0.0
2014-Sep-14 07:33N 40°39' W 074°10'0 0.0
2014-Sep-14 06:33N 40°39' W 074°10'0 0.0
2014-Sep-14 05:33N 40°39' W 074°10'0 0.0
2014-Sep-14 04:34N 40°39' W 074°10'0 0.0
2014-Sep-14 03:33N 40°39' W 074°10'0 0.0
2014-Sep-14 02:34N 40°39' W 074°10'0 0.0
2014-Sep-13 19:29N 40°39' W 074°10'0 0.0
2014-Sep-13 18:32N 40°39' W 074°10'0 0.0
2014-Sep-13 17:32N 40°39' W 074°10'0 0.0
2014-Sep-13 16:33N 40°39' W 074°10'0 0.0
2014-Sep-13 15:32N 40°39' W 074°10'0 0.0
2014-Sep-13 14:31N 40°39' W 074°10'1 1.1
2014-Sep-13 13:33N 40°39' W 074°11'7 6.7
2014-Sep-13 12:31N 40°32' W 074°15'3 3.4
2014-Sep-13 11:33N 40°35' W 074°13'0 0.1
2014-Sep-13 10:32N 40°35' W 074°13'0 0.0
2014-Sep-13 08:22N 40°35' W 074°13'2 2.2
2014-Sep-13 07:30N 40°37' W 074°12'2 2.3
2014-Sep-13 06:32N 40°39' W 074°10'0 0.0
2014-Sep-13 05:30N 40°39' W 074°10'0 0.0
2014-Sep-13 04:33N 40°39' W 074°10'0 0.0
2014-Sep-13 03:31N 40°39' W 074°10'0 0.0
2014-Sep-13 02:34N 40°39' W 074°10'0 0.0
2014-Sep-13 01:29N 40°39' W 074°10'0 0.0
2014-Sep-13 00:33N 40°39' W 074°10'0 0.0
2014-Sep-12 23:32N 40°39' W 074°10'0 0.0
2014-Sep-12 22:31N 40°39' W 074°10'0 0.0
2014-Sep-12 21:23N 40°39' W 074°10'0 0.0
2014-Sep-12 20:32N 40°39' W 074°10'0 0.0
2014-Sep-12 19:33N 40°39' W 074°10'0 0.0
2014-Sep-12 18:29N 40°39' W 074°10'0 0.0
2014-Sep-12 17:33N 40°39' W 074°10'0 0.0
2014-Sep-12 16:31N 40°39' W 074°10'2 2.2
2014-Sep-12 15:33N 40°39' W 074°07'2 2.3
2014-Sep-12 14:34N 40°39' W 074°10'0 0.2
2014-Sep-12 13:32N 40°39' W 074°10'0 0.0
2014-Sep-12 12:33N 40°39' W 074°10'0 0.0
2014-Sep-12 11:32N 40°39' W 074°10'0 0.0
2014-Sep-12 10:26N 40°39' W 074°10'0 0.0
2014-Sep-12 09:32N 40°39' W 074°10'0 0.0
2014-Sep-12 08:31N 40°39' W 074°10'0 0.0
2014-Sep-12 07:34N 40°39' W 074°10'0 0.0
2014-Sep-12 06:24N 40°39' W 074°10'0 0.0
2014-Sep-12 05:33N 40°39' W 074°10'0 0.0
2014-Sep-12 04:28N 40°39' W 074°10'0 0.0
2014-Sep-12 03:31N 40°39' W 074°10'0 0.0
2014-Sep-12 02:30N 40°39' W 074°10'0 0.0
2014-Sep-12 01:34N 40°39' W 074°10'0 0.0
2014-Sep-12 00:30N 40°39' W 074°10'0 0.0
2014-Sep-11 23:31N 40°39' W 074°10'0 0.0
2014-Sep-11 22:30N 40°39' W 074°10'0 0.0
2014-Sep-11 21:26N 40°39' W 074°10'5 1.9
2014-Sep-11 18:33N 40°38' W 074°03'3 2.9
2014-Sep-11 17:34N 40°39' W 074°06'3 2.7
2014-Sep-11 16:33N 40°39' W 074°10'0 0.0
2014-Sep-11 15:33N 40°39' W 074°10'0 0.0
2014-Sep-11 14:33N 40°39' W 074°10'0 0.0
2014-Sep-11 13:32N 40°39' W 074°10'0 0.0
2014-Sep-11 12:33N 40°39' W 074°10'0 0.0
2014-Sep-11 11:33N 40°39' W 074°10'0 0.0
2014-Sep-11 10:33N 40°39' W 074°10'0 0.0
2014-Sep-11 09:33N 40°39' W 074°10'0 0.0
2014-Sep-11 08:33N 40°39' W 074°10'0 0.0
2014-Sep-11 07:33N 40°39' W 074°10'0 0.0
2014-Sep-11 06:33N 40°39' W 074°10'0 0.0
2014-Sep-11 05:33N 40°39' W 074°10'0 0.0
2014-Sep-11 04:32N 40°39' W 074°10'0 0.0
2014-Sep-11 03:33N 40°39' W 074°10'0 0.0
2014-Sep-11 02:33N 40°39' W 074°10'0 0.0
2014-Sep-11 01:33N 40°39' W 074°10'0 0.0
2014-Sep-11 00:33N 40°39' W 074°10'0 0.0
2014-Sep-10 23:33N 40°39' W 074°10'0 0.0
2014-Sep-10 22:33N 40°39' W 074°10'0 0.0
2014-Sep-10 21:33N 40°39' W 074°10'0 0.0
2014-Sep-10 20:33N 40°39' W 074°10'0 0.0
2014-Sep-10 19:32N 40°39' W 074°10'0 0.0
2014-Sep-10 18:33N 40°39' W 074°10'0 0.0
2014-Sep-10 17:33N 40°39' W 074°10'0 0.0
2014-Sep-10 16:33N 40°39' W 074°10'0 0.0
2014-Sep-10 14:24N 40°39' W 074°10'0 0.0
2014-Sep-10 13:34N 40°39' W 074°10'0 0.0
2014-Sep-10 12:34N 40°39' W 074°10'0 0.0
2014-Sep-10 11:34N 40°39' W 074°10'0 0.0
2014-Sep-10 10:33N 40°39' W 074°10'0 0.0
2014-Sep-10 09:33N 40°39' W 074°10'0 0.0
2014-Sep-10 08:33N 40°39' W 074°10'0 0.0
2014-Sep-10 07:34N 40°39' W 074°10'0 0.0
2014-Sep-10 06:33N 40°39' W 074°10'0 0.0
2014-Sep-10 05:33N 40°39' W 074°10'0 0.0
2014-Sep-10 04:33N 40°39' W 074°10'0 0.0
2014-Sep-10 03:33N 40°39' W 074°10'0 0.0
2014-Sep-10 02:34N 40°39' W 074°10'0 0.0
2014-Sep-10 01:33N 40°39' W 074°10'0 0.0
2014-Sep-10 00:33N 40°39' W 074°10'0 0.0
2014-Sep-09 23:34N 40°39' W 074°10'0 0.0
2014-Sep-09 22:33N 40°39' W 074°10'0 0.0
2014-Sep-09 21:33N 40°39' W 074°10'0 0.0
2014-Sep-09 20:34N 40°39' W 074°10'0 0.0
2014-Sep-09 19:34N 40°39' W 074°10'0 0.0
2014-Sep-09 18:33N 40°39' W 074°10'0 0.0
2014-Sep-09 17:33N 40°39' W 074°10'0 0.0
2014-Sep-09 16:33N 40°39' W 074°10'0 0.0
2014-Sep-09 15:33N 40°39' W 074°10'0 0.0
2014-Sep-09 14:32N 40°39' W 074°10'0 0.0
2014-Sep-09 13:33N 40°39' W 074°10'0 0.0
2014-Sep-09 12:33N 40°39' W 074°10'0 0.0
2014-Sep-09 11:34N 40°39' W 074°10'0 0.0
2014-Sep-09 10:33N 40°39' W 074°10'0 0.0
2014-Sep-09 09:33N 40°39' W 074°10'0 0.0
2014-Sep-09 08:32N 40°39' W 074°10'0 0.0
2014-Sep-09 07:34N 40°39' W 074°10'0 0.0
2014-Sep-09 06:33N 40°39' W 074°10'0 0.0
2014-Sep-09 05:33N 40°39' W 074°10'0 0.0
2014-Sep-09 04:33N 40°39' W 074°10'0 0.0
2014-Sep-09 03:33N 40°39' W 074°10'0 0.0
2014-Sep-09 02:31N 40°39' W 074°10'0 0.0
2014-Sep-09 01:32N 40°39' W 074°10'0 0.0
2014-Sep-09 00:33N 40°39' W 074°10'0 0.0
2014-Sep-08 23:33N 40°39' W 074°10'0 0.0
2014-Sep-08 22:33N 40°39' W 074°10'0 0.0
2014-Sep-08 21:32N 40°39' W 074°10'0 0.0
2014-Sep-08 20:33N 40°39' W 074°10'3 3.1
2014-Sep-08 19:34N 40°39' W 074°06'3 3.0
2014-Sep-08 18:32N 40°39' W 074°10'1 1.3
2014-Sep-08 17:33N 40°40' W 074°09'1 1.3
2014-Sep-08 16:33N 40°39' W 074°10'0 0.0
2014-Sep-08 15:33N 40°39' W 074°10'0 0.0
2014-Sep-08 14:33N 40°39' W 074°10'0 0.0
2014-Sep-08 13:34N 40°39' W 074°10'0 0.0
2014-Sep-08 12:33N 40°39' W 074°10'  

Dump ship's entire track history